createdAt,value
2018-04-18T00:00:04.162Z,5.562
2018-04-18T00:01:04.490Z,5.562
2018-04-18T00:02:03.635Z,5.562
2018-04-18T00:03:03.763Z,5.5
2018-04-18T00:04:03.934Z,5.437
2018-04-18T00:05:03.322Z,5.5
2018-04-18T00:06:03.629Z,5.437
2018-04-18T00:07:03.415Z,5.437
2018-04-18T00:08:03.654Z,5.437
2018-04-18T00:09:04.369Z,5.437
2018-04-18T00:10:03.521Z,5.375
2018-04-18T00:11:03.836Z,5.375
2018-04-18T00:12:03.487Z,5.312
2018-04-18T00:13:03.631Z,5.25
2018-04-18T00:14:03.775Z,5.187
2018-04-18T00:15:04.119Z,5.25
2018-04-18T00:16:03.437Z,5.187
2018-04-18T00:17:04.393Z,5.187
2018-04-18T00:18:04.263Z,5.062
2018-04-18T00:19:03.834Z,5.062
2018-04-18T00:20:03.991Z,5
2018-04-18T00:21:04.034Z,5
2018-04-18T00:22:03.482Z,5.062
2018-04-18T00:23:04.048Z,5.125
2018-04-18T00:24:03.546Z,5.125
2018-04-18T00:25:03.978Z,5.187
2018-04-18T00:26:03.414Z,5.25
2018-04-18T00:27:03.632Z,5.25
2018-04-18T00:28:03.811Z,5.187
2018-04-18T00:29:04.108Z,5.125
2018-04-18T00:30:03.555Z,5.125
2018-04-18T00:31:03.887Z,5.062
2018-04-18T00:32:04.127Z,5.062
2018-04-18T00:33:03.480Z,5.062
2018-04-18T00:34:03.726Z,5.062
2018-04-18T00:35:10.917Z,5.125
2018-04-18T00:36:03.526Z,5.062
2018-04-18T00:37:03.836Z,4.937
2018-04-18T00:38:03.990Z,4.812
2018-04-18T00:39:03.616Z,4.875
2018-04-18T00:40:04.190Z,4.812
2018-04-18T00:41:03.450Z,4.75
2018-04-18T00:42:03.605Z,4.75
2018-04-18T00:43:03.871Z,4.75
2018-04-18T00:44:05.125Z,4.812
2018-04-18T00:45:04.406Z,4.812
2018-04-18T00:46:03.455Z,4.687
2018-04-18T00:47:03.234Z,4.625
2018-04-18T00:48:03.483Z,4.687
2018-04-18T00:49:03.656Z,4.625
2018-04-18T00:50:03.795Z,4.562
2018-04-18T00:51:04.080Z,4.562
2018-04-18T00:54:03.813Z,4.562
2018-04-18T00:55:04.009Z,4.562
2018-04-18T00:56:04.188Z,4.625
2018-04-18T00:57:03.508Z,4.687
2018-04-18T00:58:03.783Z,4.75
2018-04-18T00:59:04.139Z,4.75
2018-04-18T01:00:03.719Z,4.75
2018-04-18T01:01:04.058Z,4.75
2018-04-18T01:02:03.954Z,4.75
2018-04-18T01:03:04.221Z,4.625
2018-04-18T01:04:03.550Z,4.562
2018-04-18T01:05:03.643Z,4.5
2018-04-18T01:06:03.874Z,4.5
2018-04-18T01:07:04.073Z,4.5
2018-04-18T01:08:03.334Z,4.437
2018-04-18T01:09:03.831Z,4.437
2018-04-18T01:10:04.202Z,4.375
2018-04-18T01:11:03.302Z,4.375
2018-04-18T01:12:03.514Z,4.375
2018-04-18T01:13:03.814Z,4.375
2018-04-18T01:14:04.019Z,4.375
2018-04-18T01:15:03.660Z,4.375
2018-04-18T01:16:03.412Z,4.312
2018-04-18T01:17:04.525Z,4.312
2018-04-18T01:18:03.922Z,4.312
2018-04-18T01:19:03.398Z,4.312
2018-04-18T01:20:03.660Z,4.375
2018-04-18T01:21:03.904Z,4.375
2018-04-18T01:22:04.102Z,4.375
2018-04-18T01:23:03.899Z,4.312
2018-04-18T01:24:04.069Z,4.312
2018-04-18T01:25:04.063Z,4.312
2018-04-18T01:26:04.165Z,4.375
2018-04-18T01:27:03.403Z,4.375
2018-04-18T01:28:03.574Z,4.375
2018-04-18T01:29:03.891Z,4.312
2018-04-18T01:30:03.469Z,4.312
2018-04-18T01:31:03.350Z,4.25
2018-04-18T01:32:03.629Z,4.25
2018-04-18T01:33:04.015Z,4.25
2018-04-18T01:34:04.014Z,4.312
2018-04-18T01:35:03.313Z,4.312
2018-04-18T01:36:03.753Z,4.312
2018-04-18T01:37:03.429Z,4.312
2018-04-18T01:38:03.592Z,4.312
2018-04-18T01:39:04.263Z,4.375
2018-04-18T01:40:04.125Z,4.375
2018-04-18T01:41:03.937Z,4.437
2018-04-18T01:42:04.212Z,4.437
2018-04-18T01:43:03.559Z,4.437
2018-04-18T01:44:03.801Z,4.437
2018-04-18T01:45:04.125Z,4.437
2018-04-18T01:46:03.444Z,4.312
2018-04-18T01:47:03.905Z,4.312
2018-04-18T01:48:05.121Z,4.375
2018-04-18T01:49:03.303Z,4.437
2018-04-18T01:50:03.723Z,4.375
2018-04-18T01:51:04.174Z,4.312
2018-04-18T01:52:03.666Z,4.375
2018-04-18T01:53:04.000Z,4.375
2018-04-18T01:54:03.404Z,4.375
2018-04-18T01:55:03.777Z,4.312
2018-04-18T01:56:03.352Z,4.187
2018-04-18T01:57:03.666Z,4.187
2018-04-18T01:58:03.939Z,4.187
2018-04-18T01:59:03.549Z,4.125
2018-04-18T02:00:03.967Z,4.062
2018-04-18T02:01:04.396Z,4.125
2018-04-18T02:02:03.703Z,4.187
2018-04-18T02:03:04.111Z,4.25
2018-04-18T02:04:04.060Z,4.312
2018-04-18T02:05:03.341Z,4.312
2018-04-18T02:06:03.770Z,4.312
2018-04-18T02:07:04.133Z,4.312
2018-04-18T02:08:03.767Z,4.312
2018-04-18T02:09:04.473Z,4.187
2018-04-18T02:10:03.307Z,4.187
2018-04-18T02:11:03.877Z,4.25
2018-04-18T02:12:03.329Z,4.187
2018-04-18T02:13:03.654Z,4.125
2018-04-18T02:14:03.904Z,4.125
2018-04-18T02:15:04.218Z,4.125
2018-04-18T02:16:03.584Z,4.125
2018-04-18T02:17:03.972Z,4.125
2018-04-18T02:18:03.495Z,4.187
2018-04-18T02:19:03.994Z,4.187
2018-04-18T02:20:03.395Z,4.187
2018-04-18T02:21:03.774Z,4.125
2018-04-18T02:22:04.254Z,4.062
2018-04-18T02:23:03.538Z,4.062
2018-04-18T02:24:03.904Z,4.062
2018-04-18T02:25:04.230Z,4
2018-04-18T02:26:03.778Z,3.937
2018-04-18T02:27:04.219Z,4
2018-04-18T02:28:04.136Z,4.062
2018-04-18T02:29:03.359Z,4
2018-04-18T02:30:03.650Z,4
2018-04-18T02:31:03.748Z,4
2018-04-18T02:32:03.356Z,4
2018-04-18T02:33:03.655Z,4
2018-04-18T02:34:04.026Z,3.937
2018-04-18T02:35:03.552Z,4
2018-04-18T02:36:03.956Z,4
2018-04-18T02:37:03.359Z,4
2018-04-18T02:38:03.705Z,4
2018-04-18T02:39:04.178Z,4
2018-04-18T02:40:03.675Z,4
2018-04-18T02:41:04.068Z,4
2018-04-18T02:42:03.580Z,4.062
2018-04-18T02:43:04.033Z,4.062
2018-04-18T02:44:03.475Z,4.062
2018-04-18T02:45:03.953Z,4.125
2018-04-18T02:46:03.388Z,4.125
2018-04-18T02:47:04.073Z,4.062
2018-04-18T02:48:03.408Z,4
2018-04-18T02:49:04.775Z,3.937
2018-04-18T02:50:04.198Z,3.937
2018-04-18T02:51:03.470Z,3.937
2018-04-18T02:52:03.836Z,3.875
2018-04-18T02:53:04.056Z,3.812
2018-04-18T02:54:03.361Z,3.875
2018-04-18T02:55:03.756Z,3.875
2018-04-18T02:56:04.200Z,3.875
2018-04-18T02:57:03.426Z,3.812
2018-04-18T02:58:03.771Z,3.812
2018-04-18T02:59:03.916Z,3.812
2018-04-18T03:00:03.841Z,3.75
2018-04-18T03:01:03.457Z,3.687
2018-04-18T03:02:03.717Z,3.687
2018-04-18T03:03:04.148Z,3.75
2018-04-18T03:04:03.386Z,3.75
2018-04-18T03:05:03.909Z,3.812
2018-04-18T03:06:04.167Z,3.812
2018-04-18T03:07:03.503Z,3.812
2018-04-18T03:08:03.535Z,3.75
2018-04-18T03:09:04.167Z,3.75
2018-04-18T03:10:03.742Z,3.687
2018-04-18T03:11:04.141Z,3.75
2018-04-18T03:12:03.949Z,3.687
2018-04-18T03:13:03.357Z,3.687
2018-04-18T03:14:03.674Z,3.687
2018-04-18T03:15:03.999Z,3.75
2018-04-18T03:16:03.280Z,3.75
2018-04-18T03:17:03.878Z,3.75
2018-04-18T03:18:03.527Z,3.75
2018-04-18T03:19:03.856Z,3.75
2018-04-18T03:20:04.191Z,3.687
2018-04-18T03:21:03.553Z,3.687
2018-04-18T03:22:03.955Z,3.687
2018-04-18T03:23:03.349Z,3.75
2018-04-18T03:24:03.518Z,3.75
2018-04-18T03:25:04.265Z,3.75
2018-04-18T03:26:03.427Z,3.75
2018-04-18T03:27:03.628Z,3.687
2018-04-18T03:28:03.850Z,3.687
2018-04-18T03:29:04.211Z,3.625
2018-04-18T03:30:03.727Z,3.562
2018-04-18T03:31:04.197Z,3.5
2018-04-18T03:32:03.824Z,3.5
2018-04-18T03:33:03.382Z,3.5
2018-04-18T03:34:03.914Z,3.562
2018-04-18T03:35:04.162Z,3.562
2018-04-18T03:36:03.659Z,3.562
2018-04-18T03:37:03.968Z,3.562
2018-04-18T03:38:03.460Z,3.625
2018-04-18T03:39:04.228Z,3.625
2018-04-18T03:40:03.831Z,3.562
2018-04-18T03:41:03.587Z,3.625
2018-04-18T03:42:04.197Z,3.562
2018-04-18T03:43:03.573Z,3.5
2018-04-18T03:44:04.932Z,3.562
2018-04-18T03:45:04.141Z,3.562
2018-04-18T03:46:03.646Z,3.562
2018-04-18T03:47:04.143Z,3.5
2018-04-18T03:48:03.674Z,3.562
2018-04-18T03:49:03.815Z,3.562
2018-04-18T03:50:04.224Z,3.562
2018-04-18T03:51:03.515Z,3.562
2018-04-18T03:52:03.858Z,3.562
2018-04-18T03:53:04.244Z,3.625
2018-04-18T03:54:03.595Z,3.625
2018-04-18T03:55:03.899Z,3.625
2018-04-18T03:56:04.160Z,3.687
2018-04-18T03:57:03.733Z,3.687
2018-04-18T03:58:04.158Z,3.625
2018-04-18T03:59:03.671Z,3.625
2018-04-18T04:00:04.081Z,3.687
2018-04-18T04:01:03.241Z,3.687
2018-04-18T04:02:03.702Z,3.75
2018-04-18T04:03:03.701Z,3.687
2018-04-18T04:04:04.003Z,3.687
2018-04-18T04:05:03.730Z,3.687
2018-04-18T04:06:03.897Z,3.75
2018-04-18T04:07:04.155Z,3.687
2018-04-18T04:08:03.505Z,3.687
2018-04-18T04:09:04.085Z,3.687
2018-04-18T04:10:03.740Z,3.812
2018-04-18T04:11:04.156Z,3.812
2018-04-18T04:12:03.571Z,3.812
2018-04-18T04:13:03.837Z,3.875
2018-04-18T04:14:04.077Z,3.937
2018-04-18T04:15:03.585Z,4.062
2018-04-18T04:16:04.732Z,4.125
2018-04-18T04:17:03.548Z,4.125
2018-04-18T04:18:04.178Z,4.187
2018-04-18T04:19:04.231Z,4.187
2018-04-18T04:20:03.871Z,4.25
2018-04-18T04:21:03.312Z,4.312
2018-04-18T04:22:03.728Z,4.312
2018-04-18T04:23:03.965Z,4.375
2018-04-18T04:24:03.349Z,4.437
2018-04-18T04:25:04.321Z,4.562
2018-04-18T04:26:04.130Z,4.687
2018-04-18T04:27:03.653Z,4.75
2018-04-18T04:28:03.996Z,4.875
2018-04-18T04:29:03.353Z,4.937
2018-04-18T04:30:03.620Z,5
2018-04-18T04:31:04.128Z,5.125
2018-04-18T04:32:03.857Z,5.187
2018-04-18T04:33:03.326Z,5.25
2018-04-18T04:34:04.155Z,5.25
2018-04-18T04:35:03.583Z,5.312
2018-04-18T04:36:04.163Z,5.437
2018-04-18T04:37:04.006Z,5.5
2018-04-18T04:38:03.417Z,5.625
2018-04-18T04:39:04.344Z,5.75
2018-04-18T04:40:04.408Z,5.75
2018-04-18T04:41:03.770Z,5.812
2018-04-18T04:42:04.172Z,5.937
2018-04-18T04:43:03.528Z,6
2018-04-18T04:44:03.829Z,6
2018-04-18T04:45:04.213Z,6
2018-04-18T04:46:03.641Z,6.062
2018-04-18T04:47:03.920Z,6.062
2018-04-18T04:48:04.091Z,6
2018-04-18T04:49:03.447Z,6
2018-04-18T04:50:03.861Z,6
2018-04-18T04:51:03.462Z,5.937
2018-04-18T04:52:03.527Z,5.937
2018-04-18T04:53:03.883Z,5.937
2018-04-18T04:54:04.030Z,6.062
2018-04-18T04:55:03.479Z,6.312
2018-04-18T04:56:03.829Z,6.625
2018-04-18T04:57:04.079Z,6.875
2018-04-18T04:58:03.455Z,7.187
2018-04-18T04:59:03.842Z,7.375
2018-04-18T05:00:04.264Z,7.625
2018-04-18T05:01:04.383Z,7.75
2018-04-18T05:02:03.641Z,7.937
2018-04-18T05:03:03.919Z,8.062
2018-04-18T05:04:03.364Z,8.125
2018-04-18T05:05:04.050Z,8.187
2018-04-18T05:06:03.576Z,8.312
2018-04-18T05:07:04.090Z,8.375
2018-04-18T05:08:03.721Z,8.437
2018-04-18T05:09:04.206Z,8.437
2018-04-18T05:10:03.730Z,8.562
2018-04-18T05:11:04.186Z,8.75
2018-04-18T05:12:03.593Z,9
2018-04-18T05:13:03.860Z,9.187
2018-04-18T05:14:04.648Z,9.375
2018-04-18T05:15:04.010Z,9.5
2018-04-18T05:16:03.386Z,9.437
2018-04-18T05:17:03.908Z,9.625
2018-04-18T05:18:03.289Z,9.812
2018-04-18T05:19:03.694Z,9.937
2018-04-18T05:20:03.875Z,10.062
2018-04-18T05:21:03.365Z,10.187
2018-04-18T05:22:03.757Z,10.187
2018-04-18T05:23:04.000Z,10.375
2018-04-18T05:24:03.337Z,10.562
2018-04-18T05:25:04.007Z,10.625
2018-04-18T05:26:03.344Z,10.75
2018-04-18T05:27:03.844Z,10.937
2018-04-18T05:28:04.237Z,11.062
2018-04-18T05:29:03.527Z,11.125
2018-04-18T05:30:03.919Z,11.437
2018-04-18T05:31:03.992Z,11.625
2018-04-18T05:32:03.262Z,11.812
2018-04-18T05:33:03.538Z,12.125
2018-04-18T05:34:03.975Z,12.312
2018-04-18T05:35:03.445Z,12.437
2018-04-18T05:36:03.807Z,12.625
2018-04-18T05:37:04.078Z,12.812
2018-04-18T05:38:04.254Z,13.062
2018-04-18T05:39:03.785Z,13.25
2018-04-18T05:40:03.792Z,13.187
2018-04-18T05:41:04.155Z,13.187
2018-04-18T05:42:03.384Z,13.312
2018-04-18T05:43:03.496Z,13.562
2018-04-18T05:44:05.038Z,13.812
2018-04-18T05:45:03.668Z,13.937
2018-04-18T05:46:04.079Z,14.187
2018-04-18T05:47:03.534Z,14.5
2018-04-18T05:48:03.585Z,14.562
2018-04-18T05:49:03.865Z,14.812
2018-04-18T05:50:04.202Z,15.062
2018-04-18T05:51:03.425Z,15.125
2018-04-18T05:52:03.765Z,15.312
2018-04-18T05:53:04.102Z,15.437
2018-04-18T05:54:03.388Z,15.75
2018-04-18T05:55:03.830Z,16.062
2018-04-18T05:56:04.277Z,16.25
2018-04-18T05:57:03.660Z,16.375
2018-04-18T05:58:03.998Z,16.437
2018-04-18T05:59:03.437Z,16.5
2018-04-18T06:00:04.093Z,16.625
2018-04-18T06:01:03.378Z,16.687
2018-04-18T06:02:03.710Z,16.75
2018-04-18T06:03:04.020Z,16.812
2018-04-18T06:04:03.355Z,16.937
2018-04-18T06:05:03.807Z,17.125
2018-04-18T06:06:03.293Z,17.312
2018-04-18T06:07:03.251Z,17.5
2018-04-18T06:08:03.549Z,17.687
2018-04-18T06:09:04.083Z,17.687
2018-04-18T06:10:03.370Z,17.875
2018-04-18T06:11:03.749Z,17.937
2018-04-18T06:12:03.431Z,18.062
2018-04-18T06:13:03.857Z,18.062
2018-04-18T06:14:03.265Z,18.187
2018-04-18T06:15:03.758Z,18.187
2018-04-18T06:16:04.408Z,18.25
2018-04-18T06:17:03.791Z,18.5
2018-04-18T06:18:04.231Z,18.687
2018-04-18T06:19:03.573Z,18.812
2018-04-18T06:20:04.237Z,19
2018-04-18T06:21:03.672Z,19.062
2018-04-18T06:22:03.913Z,19.125
2018-04-18T06:23:04.301Z,19.25
2018-04-18T06:24:03.372Z,19.312
2018-04-18T06:25:03.753Z,19.437
2018-04-18T06:26:03.714Z,19.562
2018-04-18T06:27:03.353Z,19.687
2018-04-18T06:28:03.861Z,19.812
2018-04-18T06:29:04.211Z,20
2018-04-18T06:30:03.526Z,20.062
2018-04-18T06:31:03.954Z,20.187
2018-04-18T06:32:03.295Z,20.5
2018-04-18T06:33:03.795Z,20.687
2018-04-18T06:34:04.146Z,20.562
2018-04-18T06:35:03.541Z,20.625
2018-04-18T06:36:04.126Z,20.75
2018-04-18T06:37:03.402Z,20.937
2018-04-18T06:38:03.731Z,21.25
2018-04-18T06:39:04.379Z,21.375
2018-04-18T06:40:03.953Z,21.625
2018-04-18T06:41:03.486Z,21.75
2018-04-18T06:42:03.710Z,21.937
2018-04-18T06:43:04.150Z,22
2018-04-18T06:44:04.178Z,22.187
2018-04-18T06:45:04.590Z,22.312
2018-04-18T06:46:03.959Z,22.5
2018-04-18T06:47:04.037Z,22.625
2018-04-18T06:48:03.327Z,22.625
2018-04-18T06:49:03.646Z,22.687
2018-04-18T06:50:04.186Z,22.875
2018-04-18T06:51:03.573Z,23
2018-04-18T06:52:03.874Z,23.187
2018-04-18T06:53:03.354Z,23.187
2018-04-18T06:54:03.716Z,23.375
2018-04-18T06:55:03.512Z,23.437
2018-04-18T06:56:04.697Z,23.5
2018-04-18T06:57:04.013Z,23.687
2018-04-18T06:58:03.475Z,23.875
2018-04-18T06:59:03.750Z,23.875
2018-04-18T07:00:04.176Z,23.812
2018-04-18T07:01:03.514Z,24
2018-04-18T07:02:03.842Z,24.25
2018-04-18T07:03:04.153Z,24.375
2018-04-18T07:04:03.478Z,24.312
2018-04-18T07:05:04.135Z,24.562
2018-04-18T07:06:03.412Z,24.687
2018-04-18T07:07:03.856Z,24.75
2018-04-18T07:08:04.247Z,24.937
2018-04-18T07:09:04.084Z,25.125
2018-04-18T07:10:03.601Z,25.187
2018-04-18T07:11:03.666Z,24.875
2018-04-18T07:12:04.055Z,24.937
2018-04-18T07:13:03.311Z,25.125
2018-04-18T07:14:03.716Z,25.25
2018-04-18T07:15:04.269Z,25.25
2018-04-18T07:16:03.635Z,25.187
2018-04-18T07:17:04.098Z,25.375
2018-04-18T07:18:03.881Z,25.625
2018-04-18T07:19:03.364Z,25.875
2018-04-18T07:20:03.643Z,25.875
2018-04-18T07:21:03.909Z,26.125
2018-04-18T07:22:03.612Z,26.125
2018-04-18T07:23:03.778Z,26
2018-04-18T07:24:04.073Z,26
2018-04-18T07:25:03.702Z,26.375
2018-04-18T07:26:05.923Z,26.687
2018-04-18T07:27:04.048Z,26.875
2018-04-18T07:28:03.664Z,26.875
2018-04-18T07:29:04.200Z,26.812
2018-04-18T07:30:03.787Z,27.062
2018-04-18T07:31:03.334Z,27.187
2018-04-18T07:32:03.785Z,26.937
2018-04-18T07:33:04.131Z,26.937
2018-04-18T07:34:03.394Z,27
2018-04-18T07:35:03.785Z,27.375
2018-04-18T07:36:05.064Z,27.25
2018-04-18T07:37:04.230Z,27.437
2018-04-18T07:38:03.650Z,27.812
2018-04-18T07:39:04.826Z,28.187
2018-04-18T07:40:04.542Z,27.937
2018-04-18T07:41:03.814Z,28.125
2018-04-18T07:42:04.226Z,28.437
2018-04-18T07:43:03.537Z,28.25
2018-04-18T07:44:03.533Z,28.187
2018-04-18T07:45:03.903Z,28.125
2018-04-18T07:46:04.251Z,28.75
2018-04-18T07:47:03.549Z,28.375
2018-04-18T07:48:03.929Z,28.625
2018-04-18T07:49:03.399Z,28.812
2018-04-18T07:50:03.602Z,28.75
2018-04-18T07:51:04.216Z,28.937
2018-04-18T07:52:03.574Z,29.437
2018-04-18T07:53:03.937Z,29.562
2018-04-18T07:54:03.474Z,29.437
2018-04-18T07:55:04.147Z,29.312
2018-04-18T07:56:03.587Z,29.187
2018-04-18T07:57:04.752Z,28.937
2018-04-18T07:58:03.899Z,28.437
2018-04-18T07:59:04.159Z,28.437
2018-04-18T08:00:04.358Z,28.437
2018-04-18T08:01:03.510Z,28.562
2018-04-18T08:02:04.251Z,28.562
2018-04-18T08:03:03.675Z,28.5
2018-04-18T08:04:03.967Z,28.562
2018-04-18T08:05:03.588Z,28.75
2018-04-18T08:06:03.825Z,28.625
2018-04-18T08:07:04.103Z,28.687
2018-04-18T08:08:03.476Z,28.562
2018-04-18T08:09:03.527Z,28.75
2018-04-18T08:10:03.569Z,28.875
2018-04-18T08:11:03.813Z,29.187
2018-04-18T08:12:04.125Z,29.437
2018-04-18T08:13:03.600Z,29.562
2018-04-18T08:14:03.212Z,29.937
2018-04-18T08:15:03.644Z,30
2018-04-18T08:16:03.632Z,30.125
2018-04-18T08:17:04.278Z,30.062
2018-04-18T08:18:03.571Z,29.687
2018-04-18T08:19:03.916Z,29.812
2018-04-18T08:20:04.344Z,30.125
2018-04-18T08:21:03.598Z,30.25
2018-04-18T08:22:03.961Z,30.125
2018-04-18T08:23:03.745Z,30.312
2018-04-18T08:24:04.046Z,30.312
2018-04-18T08:25:03.603Z,30.062
2018-04-18T08:26:04.204Z,29.875
2018-04-18T08:27:03.582Z,30
2018-04-18T08:28:04.000Z,29.875
2018-04-18T08:29:03.332Z,29.937
2018-04-18T08:30:03.782Z,30
2018-04-18T08:31:03.482Z,29.937
2018-04-18T08:32:03.966Z,29.875
2018-04-18T08:33:03.254Z,29.812
2018-04-18T08:34:03.599Z,30
2018-04-18T08:35:03.976Z,30
2018-04-18T08:36:04.091Z,30.125
2018-04-18T08:37:03.456Z,30.187
2018-04-18T08:38:03.817Z,30.437
2018-04-18T08:39:04.646Z,30.25
2018-04-18T08:40:03.610Z,30.437
2018-04-18T08:41:03.923Z,30.687
2018-04-18T08:42:03.305Z,30.812
2018-04-18T08:43:03.756Z,30.875
2018-04-18T08:44:04.070Z,30.937
2018-04-18T08:45:03.593Z,30.687
2018-04-18T08:46:03.861Z,30.75
2018-04-18T08:47:03.371Z,30.812
2018-04-18T08:48:03.690Z,30.687
2018-04-18T08:49:04.078Z,30.625
2018-04-18T08:50:03.888Z,30.437
2018-04-18T08:51:04.137Z,30.687
2018-04-18T08:52:03.454Z,30.875
2018-04-18T08:53:03.523Z,31.125
2018-04-18T08:54:04.165Z,31.187
2018-04-18T08:55:03.542Z,31.187
2018-04-18T08:56:04.248Z,31.375
2018-04-18T08:57:03.510Z,31.25
2018-04-18T08:58:03.814Z,31.187
2018-04-18T08:59:04.156Z,31.5
2018-04-18T09:00:03.673Z,31.375
2018-04-18T09:01:04.141Z,31.187
2018-04-18T09:02:03.487Z,31.25
2018-04-18T09:03:03.739Z,31.625
2018-04-18T09:04:04.070Z,31.875
2018-04-18T09:05:03.751Z,31.812
2018-04-18T09:06:03.910Z,31.625
2018-04-18T09:07:04.204Z,31.375
2018-04-18T09:08:03.525Z,31.5
2018-04-18T09:09:04.231Z,31.75
2018-04-18T09:10:04.261Z,32.25
2018-04-18T09:11:03.550Z,31.937
2018-04-18T09:12:03.912Z,31.812
2018-04-18T09:13:04.272Z,31.562
2018-04-18T09:14:03.627Z,30.75
2018-04-18T09:15:04.082Z,30.312
2018-04-18T09:16:03.428Z,30.5
2018-04-18T09:17:03.904Z,30.375
2018-04-18T09:18:04.223Z,30.437
2018-04-18T09:19:03.315Z,30.437
2018-04-18T09:20:03.722Z,30.562
2018-04-18T09:21:04.097Z,30.937
2018-04-18T09:22:04.015Z,31.062
2018-04-18T09:23:03.422Z,31.125
2018-04-18T09:24:03.750Z,31.125
2018-04-18T09:25:04.043Z,30.937
2018-04-18T09:26:03.457Z,31.062
2018-04-18T09:27:03.539Z,31
2018-04-18T09:28:04.238Z,30.25
2018-04-18T09:29:03.840Z,29.375
2018-04-18T09:30:03.474Z,29.437
2018-04-18T09:31:03.799Z,29.812
2018-04-18T09:32:03.874Z,30.125
2018-04-18T09:33:03.312Z,30.375
2018-04-18T09:34:03.653Z,30.5
2018-04-18T09:35:03.508Z,30.562
2018-04-18T09:36:03.927Z,30.75
2018-04-18T09:37:03.968Z,30.437
2018-04-18T09:38:04.111Z,30.625
2018-04-18T09:39:03.975Z,30.5
2018-04-18T09:40:03.766Z,29.937
2018-04-18T09:41:03.327Z,29.75
2018-04-18T09:42:03.711Z,29.812
2018-04-18T09:43:04.091Z,29.375
2018-04-18T09:44:04.112Z,29.437
2018-04-18T09:45:03.609Z,28.5
2018-04-18T09:46:03.903Z,28.312
2018-04-18T09:47:04.114Z,28.062
2018-04-18T09:48:04.183Z,28.375
2018-04-18T09:49:04.136Z,28.562
2018-04-18T09:50:03.614Z,28.5
2018-04-18T09:51:03.923Z,29
2018-04-18T09:52:03.371Z,28.375
2018-04-18T09:53:03.773Z,28.375
2018-04-18T09:54:03.286Z,28.812
2018-04-18T09:55:03.721Z,29.187
2018-04-18T09:56:04.149Z,29.187
2018-04-18T09:57:03.412Z,29.437
2018-04-18T09:58:03.751Z,29.687
2018-04-18T09:59:04.053Z,29.875
2018-04-18T10:00:04.427Z,30.187
2018-04-18T10:01:04.014Z,30.187
2018-04-18T10:02:03.395Z,30.312
2018-04-18T10:03:03.747Z,30.187
2018-04-18T10:04:03.279Z,30.562
2018-04-18T10:05:03.699Z,30.75
2018-04-18T10:06:04.141Z,30.562
2018-04-18T10:07:03.484Z,30.437
2018-04-18T10:08:03.718Z,30.5
2018-04-18T10:09:04.191Z,30.5
2018-04-18T10:10:03.986Z,30.312
2018-04-18T10:11:03.337Z,29.812
2018-04-18T10:12:03.675Z,29.562
2018-04-18T10:13:04.026Z,29.375
2018-04-18T10:14:03.592Z,29.25
2018-04-18T10:15:03.937Z,28.75
2018-04-18T10:16:03.379Z,28.875
2018-04-18T10:17:09.358Z,29
2018-04-18T10:18:03.921Z,29.312
2018-04-18T10:19:04.762Z,29.25
2018-04-18T10:20:04.737Z,29.437
2018-04-18T10:21:09.533Z,29.562
2018-04-18T10:22:03.274Z,29.437
2018-04-18T10:23:04.646Z,29.625
2018-04-18T10:24:03.786Z,30.062
2018-04-18T10:25:04.056Z,30.25
2018-04-18T10:26:03.378Z,30.5
2018-04-18T10:27:03.789Z,30.562
2018-04-18T10:28:04.199Z,30.562
2018-04-18T10:29:03.560Z,30.25
2018-04-18T10:30:04.004Z,30
2018-04-18T10:31:03.312Z,29.625
2018-04-18T10:32:03.644Z,29.375
2018-04-18T10:33:03.475Z,29.5
2018-04-18T10:34:03.858Z,28.437
2018-04-18T10:35:04.146Z,27.937
2018-04-18T10:36:03.612Z,27.812
2018-04-18T10:37:04.060Z,27.5
2018-04-18T10:38:03.530Z,28
2018-04-18T10:39:04.365Z,28.312
2018-04-18T10:40:04.191Z,28.375
2018-04-18T10:41:03.486Z,28.562
2018-04-18T10:42:03.970Z,28.437
2018-04-18T10:43:04.304Z,28.562
2018-04-18T10:44:03.692Z,28.625
2018-04-18T10:45:04.340Z,28.812
2018-04-18T10:46:03.606Z,28.875
2018-04-18T10:47:03.967Z,28.437
2018-04-18T10:48:03.503Z,28.625
2018-04-18T10:49:04.298Z,28.75
2018-04-18T10:50:04.385Z,28.875
2018-04-18T10:51:03.693Z,28.937
2018-04-18T10:52:03.948Z,28.937
2018-04-18T10:53:03.527Z,28.875
2018-04-18T10:54:04.072Z,28.562
2018-04-18T10:55:03.858Z,28.437
2018-04-18T10:56:04.420Z,28.437
2018-04-18T10:57:04.341Z,28.437
2018-04-18T10:58:03.826Z,28.25
2018-04-18T10:59:05.556Z,28.062
2018-04-18T11:00:04.925Z,28.125
2018-04-18T11:01:03.871Z,28.375
2018-04-18T11:02:03.351Z,28.125
2018-04-18T11:03:04.141Z,27.687
2018-04-18T11:04:03.715Z,27.625
2018-04-18T11:05:04.201Z,27.75
2018-04-18T11:06:03.716Z,27.75
2018-04-18T11:07:04.164Z,28
2018-04-18T11:08:03.583Z,28.25
2018-04-18T11:09:04.573Z,28.25
2018-04-18T11:10:04.341Z,28.562
2018-04-18T11:11:03.736Z,28.812
2018-04-18T11:12:03.915Z,28.625
2018-04-18T11:13:03.435Z,28.75
2018-04-18T11:14:04.130Z,28.812
2018-04-18T11:15:04.257Z,28.375
2018-04-18T11:16:03.624Z,27.937
2018-04-18T11:17:04.267Z,27.312
2018-04-18T11:18:03.985Z,27.062
2018-04-18T11:19:04.152Z,27.062
2018-04-18T11:20:03.998Z,27.312
2018-04-18T11:21:03.545Z,27.687
2018-04-18T11:22:03.991Z,28
2018-04-18T11:23:03.451Z,28.25
2018-04-18T11:24:03.844Z,28.187
2018-04-18T11:25:04.144Z,27.937
2018-04-18T11:26:04.036Z,27.625
2018-04-18T11:27:03.839Z,28
2018-04-18T11:28:04.185Z,28.312
2018-04-18T11:29:03.623Z,28.437
2018-04-18T11:30:04.397Z,28.125
2018-04-18T11:31:03.654Z,27.937
2018-04-18T11:32:03.883Z,27.937
2018-04-18T11:33:04.163Z,28.062
2018-04-18T11:34:03.533Z,28.125
2018-04-18T11:35:03.994Z,28.312
2018-04-18T11:36:03.447Z,27.937
2018-04-18T11:37:03.861Z,27.75
2018-04-18T11:38:03.552Z,28.062
2018-04-18T11:39:04.148Z,27.937
2018-04-18T11:40:03.886Z,27.812
2018-04-18T11:41:04.260Z,27.687
2018-04-18T11:42:03.614Z,27.687
2018-04-18T11:43:04.069Z,27
2018-04-18T11:44:03.317Z,27.125
2018-04-18T11:45:03.790Z,27.187
2018-04-18T11:46:03.463Z,27.437
2018-04-18T11:47:03.731Z,27.625
2018-04-18T11:48:04.000Z,27.875
2018-04-18T11:49:03.298Z,27.875
2018-04-18T11:50:03.584Z,27.562
2018-04-18T11:51:04.111Z,27.562
2018-04-18T11:52:03.367Z,27.5
2018-04-18T11:53:03.656Z,27.5
2018-04-18T11:54:04.036Z,27.687
2018-04-18T11:55:03.412Z,27.812
2018-04-18T11:56:03.844Z,27.812
2018-04-18T11:57:03.335Z,28.062
2018-04-18T11:58:03.840Z,28.125
2018-04-18T11:59:03.174Z,27.812
2018-04-18T12:00:03.732Z,28.312
2018-04-18T12:01:03.997Z,28.375
2018-04-18T12:02:03.349Z,28.312
2018-04-18T12:03:04.232Z,28.375
2018-04-18T12:04:03.525Z,28.312
2018-04-18T12:05:04.060Z,28.312
2018-04-18T12:06:03.347Z,28.062
2018-04-18T12:07:03.542Z,27.875
2018-04-18T12:08:04.003Z,27.562
2018-04-18T12:09:03.858Z,27.187
2018-04-18T12:10:04.216Z,27.062
2018-04-18T12:11:03.627Z,26.75
2018-04-18T12:12:03.528Z,26.812
2018-04-18T12:13:03.977Z,26.562
2018-04-18T12:14:03.788Z,26.312
2018-04-18T12:15:03.939Z,26.25
2018-04-18T12:16:03.266Z,26.312
2018-04-18T12:17:03.578Z,26.312
2018-04-18T12:18:03.737Z,26.312
2018-04-18T12:19:03.983Z,26.437
2018-04-18T12:20:03.366Z,26.562
2018-04-18T12:21:03.628Z,26.375
2018-04-18T12:22:03.890Z,26.125
2018-04-18T12:23:03.579Z,25.812
2018-04-18T12:24:03.836Z,25.75
2018-04-18T12:25:03.390Z,25.937
2018-04-18T12:26:03.768Z,26
2018-04-18T12:27:04.163Z,26
2018-04-18T12:28:03.486Z,26.062
2018-04-18T12:29:03.536Z,26.125
2018-04-18T12:30:04.647Z,26.25
2018-04-18T12:31:03.998Z,26.25
2018-04-18T12:32:03.256Z,26.312
2018-04-18T12:33:03.523Z,26.312
2018-04-18T12:34:04.019Z,26.25
2018-04-18T12:35:03.544Z,26.187
2018-04-18T12:36:03.956Z,26.062
2018-04-18T12:37:03.321Z,25.875
2018-04-18T12:38:03.687Z,25.937
2018-04-18T12:39:04.242Z,25.687
2018-04-18T12:40:03.905Z,25.687
2018-04-18T12:41:04.240Z,25.625
2018-04-18T12:42:03.625Z,25.625
2018-04-18T12:43:03.945Z,25.625
2018-04-18T12:44:03.335Z,25.562
2018-04-18T12:45:03.788Z,25.562
2018-04-18T12:46:04.059Z,25.5
2018-04-18T12:47:03.835Z,25.625
2018-04-18T12:48:03.974Z,25.437
2018-04-18T12:49:03.387Z,25.5
2018-04-18T12:50:04.220Z,25.562
2018-04-18T12:51:03.496Z,25.562